Time;durP1;ratioP1;P1;durP2;ratioP2;P2;SDS_P1;SDS_P2;PMS_P1;PMS_P2;Temp;Humidity;BMP_temperature;BMP_pressure;BME280_temperature;BME280_humidity;BME280_pressure;Samples;Min_cycle;Max_cycle;Signal;HPM_P1;HPM_P2
2021/05/23 00:00:39;;;;;;;2.20;1.40;;;11.70;99.70;;;;;;5072986;28;20478;-66
2021/05/23 00:03:09;;;;;;;2.27;1.40;;;11.80;99.70;;;;;;5073330;28;20843;-66
2021/05/23 00:05:38;;;;;;;2.10;1.30;;;11.70;99.70;;;;;;5072765;28;20450;-66
2021/05/23 00:08:07;;;;;;;1.60;1.40;;;11.70;99.70;;;;;;5073373;28;20567;-66
2021/05/23 00:10:37;;;;;;;1.73;1.20;;;11.70;99.70;;;;;;5072697;28;20462;-66
2021/05/23 00:13:05;;;;;;;2.60;1.27;;;11.60;99.70;;;;;;5073101;28;20442;-66
2021/05/23 00:15:34;;;;;;;2.00;1.30;;;11.60;99.70;;;;;;5072636;28;20473;-66
2021/05/23 00:18:00;;;;;;;1.40;1.13;;;11.70;99.70;;;;;;5072935;28;20446;-66
2021/05/23 00:20:27;;;;;;;2.20;1.27;;;11.60;99.70;;;;;;5072957;28;20493;-66
2021/05/23 00:22:54;;;;;;;1.70;1.23;;;11.50;99.70;;;;;;5072703;28;20438;-66
2021/05/23 00:25:22;;;;;;;1.63;1.40;;;11.70;99.70;;;;;;5072717;28;20438;-66
2021/05/23 00:27:49;;;;;;;1.63;1.20;;;11.70;99.70;;;;;;5073026;28;20970;-66
2021/05/23 00:30:17;;;;;;;1.30;1.00;;;11.80;99.70;;;;;;5072791;28;20941;-66
2021/05/23 00:32:44;;;;;;;3.37;1.40;;;11.80;99.70;;;;;;5072517;28;20500;-66
2021/05/23 00:35:10;;;;;;;1.90;1.17;;;11.70;99.70;;;;;;5072865;28;20455;-66
2021/05/23 00:37:37;;;;;;;1.40;1.07;;;11.70;99.70;;;;;;5072633;28;20953;-66
2021/05/23 00:40:05;;;;;;;1.40;1.10;;;11.70;99.70;;;;;;5072802;28;20470;-67
2021/05/23 00:42:31;;;;;;;1.50;1.10;;;11.70;99.70;;;;;;5072396;28;20681;-65
2021/05/23 00:44:58;;;;;;;1.90;1.20;;;11.70;99.70;;;;;;5072753;28;20849;-66
2021/05/23 00:47:25;;;;;;;2.00;1.10;;;11.70;99.70;;;;;;5072670;28;20447;-66
2021/05/23 00:49:51;;;;;;;1.60;1.13;;;11.60;99.70;;;;;;5072646;28;20442;-66
2021/05/23 00:52:17;;;;;;;2.17;1.20;;;11.70;99.70;;;;;;5072343;28;20792;-66
2021/05/23 00:54:43;;;;;;;1.50;1.13;;;11.60;99.70;;;;;;5072231;28;20447;-66
2021/05/23 00:57:10;;;;;;;1.57;1.27;;;11.70;99.70;;;;;;5072426;28;20497;-66
2021/05/23 00:59:36;;;;;;;1.30;1.10;;;11.70;99.70;;;;;;5072349;28;20447;-66
2021/05/23 01:02:40;;;;;;;2.53;1.27;;;11.60;99.70;;;;;;5072363;28;20466;-66
2021/05/23 01:05:07;;;;;;;1.90;1.30;;;11.60;99.70;;;;;;5072271;28;20442;-66
2021/05/23 01:07:34;;;;;;;1.70;1.10;;;11.60;99.70;;;;;;5070758;28;20807;-66
2021/05/23 01:10:06;;;;;;;1.27;1.00;;;11.60;99.70;;;;;;5071661;28;20435;-66
2021/05/23 01:13:00;;;;;;;1.43;1.10;;;11.60;99.70;;;;;;5071368;28;20471;-64
2021/05/23 01:15:29;;;;;;;1.30;1.00;;;11.70;99.70;;;;;;5071667;28;20850;-66
2021/05/23 01:18:01;;;;;;;1.50;1.10;;;11.70;99.70;;;;;;5071524;28;20443;-66
2021/05/23 01:20:44;;;;;;;3.30;1.23;;;11.60;99.70;;;;;;5071934;28;20487;-66
2021/05/23 01:23:27;;;;;;;1.80;1.20;;;11.60;99.70;;;;;;5071032;28;20450;-65
2021/05/23 01:26:03;;;;;;;1.50;1.23;;;11.50;99.70;;;;;;5071110;28;20446;-66
2021/05/23 01:28:32;;;;;;;1.50;1.10;;;11.50;99.70;;;;;;5071508;28;20458;-66
2021/05/23 01:30:59;;;;;;;1.60;1.10;;;11.60;99.70;;;;;;5070736;28;20462;-66
2021/05/23 01:33:25;;;;;;;1.80;1.10;;;11.50;99.70;;;;;;5071263;28;20887;-66
2021/05/23 01:35:56;;;;;;;1.67;1.10;;;11.50;99.70;;;;;;5071481;28;20443;-66
2021/05/23 01:38:23;;;;;;;3.30;1.57;;;11.50;99.70;;;;;;5071176;28;20952;-66
2021/05/23 01:40:53;;;;;;;1.67;1.20;;;11.40;99.70;;;;;;5071187;28;20486;-66
2021/05/23 01:43:21;;;;;;;1.47;1.40;;;11.40;99.70;;;;;;5070965;28;20804;-66
2021/05/23 01:45:48;;;;;;;1.83;1.13;;;11.30;99.70;;;;;;5071067;28;20451;-66
2021/05/23 01:48:14;;;;;;;1.50;1.10;;;11.20;99.70;;;;;;5054276;28;20464;-66
2021/05/23 01:50:41;;;;;;;1.70;1.17;;;11.20;99.70;;;;;;5051640;28;20472;-66
2021/05/23 01:53:07;;;;;;;1.40;1.00;;;11.10;99.70;;;;;;5070739;28;20504;-66
2021/05/23 01:55:34;;;;;;;1.40;1.00;;;11.20;99.70;;;;;;5071214;28;20454;-66
2021/05/23 01:58:01;;;;;;;2.03;1.30;;;11.40;99.70;;;;;;5070038;28;20447;-66
2021/05/23 02:00:30;;;;;;;1.50;1.20;;;11.30;99.70;;;;;;5070667;28;20486;-66
2021/05/23 02:02:58;;;;;;;2.17;1.30;;;11.30;99.70;;;;;;5070922;28;20447;-66
2021/05/23 02:05:24;;;;;;;1.50;1.10;;;11.40;99.70;;;;;;5070577;28;20450;-66
2021/05/23 02:07:50;;;;;;;2.13;1.33;;;11.50;99.70;;;;;;5070522;28;20446;-66
2021/05/23 02:10:18;;;;;;;1.73;1.20;;;11.30;99.70;;;;;;5070686;28;20439;-66
2021/05/23 02:12:45;;;;;;;1.40;1.20;;;11.40;99.70;;;;;;5070459;28;20949;-66
2021/05/23 02:15:14;;;;;;;1.40;1.00;;;11.40;99.70;;;;;;5069985;28;20529;-66
2021/05/23 02:17:43;;;;;;;1.40;1.10;;;11.60;99.70;;;;;;5070757;28;20439;-66
2021/05/23 02:20:12;;;;;;;2.30;1.10;;;11.50;99.70;;;;;;5069694;28;20475;-66
2021/05/23 02:22:39;;;;;;;1.77;1.30;;;11.50;99.70;;;;;;5068979;28;20458;-66
2021/05/23 02:25:07;;;;;;;1.53;1.30;;;11.40;99.70;;;;;;5070100;28;20504;-66
2021/05/23 02:27:36;;;;;;;2.37;1.30;;;11.30;99.70;;;;;;5070287;28;20443;-66
2021/05/23 02:30:06;;;;;;;1.93;1.10;;;11.40;99.70;;;;;;5069738;28;20439;-66
2021/05/23 02:32:33;;;;;;;1.80;1.17;;;11.50;99.70;;;;;;5070058;28;20508;-65
2021/05/23 02:35:00;;;;;;;1.80;1.10;;;11.40;99.70;;;;;;5069977;28;20447;-66
2021/05/23 02:37:26;;;;;;;1.40;1.00;;;11.30;99.70;;;;;;5070114;28;20447;-66
2021/05/23 02:39:52;;;;;;;1.40;1.10;;;11.40;99.70;;;;;;5070328;28;20492;-66
2021/05/23 02:42:18;;;;;;;1.60;1.20;;;11.20;99.70;;;;;;5070042;28;20470;-66
2021/05/23 02:44:44;;;;;;;2.17;1.20;;;11.10;99.70;;;;;;5069827;28;20474;-66
2021/05/23 02:47:11;;;;;;;1.50;1.00;;;10.90;99.70;;;;;;5066065;28;20440;-66
2021/05/23 02:49:41;;;;;;;1.40;1.10;;;11.00;99.70;;;;;;5050305;28;20443;-66
2021/05/23 02:52:09;;;;;;;1.50;1.10;;;10.60;99.70;;;;;;5060712;28;20579;-66
2021/05/23 02:54:36;;;;;;;1.60;1.10;;;10.60;99.70;;;;;;5069460;28;20580;-66
2021/05/23 02:57:02;;;;;;;2.03;1.00;;;10.40;99.70;;;;;;5069715;28;20511;-66
2021/05/23 02:59:28;;;;;;;1.40;0.90;;;10.40;99.70;;;;;;5069973;28;20446;-66
2021/05/23 03:01:54;;;;;;;1.30;1.00;;;10.30;99.70;;;;;;5069662;28;20857;-66
2021/05/23 03:04:21;;;;;;;1.30;0.90;;;10.20;99.70;;;;;;5069854;28;20452;-66
2021/05/23 03:06:47;;;;;;;1.27;1.07;;;10.10;99.70;;;;;;5069534;28;20447;-66
2021/05/23 03:09:14;;;;;;;1.20;0.80;;;10.00;99.70;;;;;;5070061;28;20451;-66
2021/05/23 03:11:41;;;;;;;1.40;1.00;;;10.30;99.70;;;;;;5069464;28;20550;-66
2021/05/23 03:14:07;;;;;;;1.37;0.93;;;10.20;99.70;;;;;;5069740;28;20800;-66
2021/05/23 03:16:33;;;;;;;1.20;0.93;;;10.00;99.70;;;;;;5069318;28;20451;-66
2021/05/23 03:18:59;;;;;;;1.60;1.00;;;10.10;99.70;;;;;;5051098;28;20454;-66
2021/05/23 03:21:25;;;;;;;1.33;1.00;;;10.00;99.70;;;;;;5053772;28;20478;-66
2021/05/23 03:23:51;;;;;;;1.40;0.97;;;10.20;99.70;;;;;;5069547;28;20451;-66
2021/05/23 03:26:18;;;;;;;1.30;0.90;;;10.10;99.70;;;;;;5069234;28;20455;-66
2021/05/23 03:28:45;;;;;;;1.57;1.00;;;10.00;99.70;;;;;;5069473;28;20930;-66
2021/05/23 03:31:11;;;;;;;1.23;0.97;;;10.40;99.70;;;;;;5071800;28;20884;-66
2021/05/23 03:33:37;;;;;;;1.40;0.90;;;10.50;99.70;;;;;;5073517;28;20450;-66
2021/05/23 03:36:04;;;;;;;1.40;1.10;;;10.50;99.70;;;;;;5073767;28;20446;-66
2021/05/23 03:38:30;;;;;;;1.40;1.10;;;10.40;99.70;;;;;;5065199;28;21163;-66
2021/05/23 03:40:56;;;;;;;1.20;0.90;;;10.50;99.70;;;;;;5073684;28;20478;-66
2021/05/23 03:43:23;;;;;;;1.50;0.93;;;10.40;99.70;;;;;;5073141;28;20451;-66
2021/05/23 03:45:49;;;;;;;1.40;0.90;;;10.40;99.70;;;;;;5073206;28;20446;-66
2021/05/23 03:48:16;;;;;;;1.27;0.97;;;10.20;99.70;;;;;;5073617;28;20439;-66
2021/05/23 03:50:42;;;;;;;2.23;1.20;;;10.20;99.70;;;;;;5073193;28;20497;-66
2021/05/23 03:53:08;;;;;;;1.53;1.10;;;10.30;99.70;;;;;;5073087;28;20447;-66
2021/05/23 03:55:35;;;;;;;1.40;1.00;;;10.00;99.70;;;;;;5072582;28;20450;-66
2021/05/23 03:58:03;;;;;;;1.20;0.90;;;10.00;99.70;;;;;;5072900;28;20450;-66
2021/05/23 04:00:30;;;;;;;1.50;1.00;;;10.20;99.70;;;;;;5072655;28;20573;-66
2021/05/23 04:02:57;;;;;;;1.73;0.90;;;10.10;99.70;;;;;;5072823;28;20999;-66
2021/05/23 04:05:25;;;;;;;1.40;1.10;;;10.30;99.70;;;;;;5072787;28;20497;-66
2021/05/23 04:07:52;;;;;;;1.20;0.90;;;10.40;99.70;;;;;;5073046;28;20439;-66
2021/05/23 04:10:23;;;;;;;1.30;1.00;;;10.30;99.70;;;;;;5072978;28;20443;-66
2021/05/23 04:12:50;;;;;;;1.30;0.90;;;10.20;99.70;;;;;;5072773;28;20451;-66
2021/05/23 04:15:18;;;;;;;1.20;1.00;;;10.30;99.70;;;;;;5072420;28;20798;-66
2021/05/23 04:17:46;;;;;;;1.30;0.90;;;10.10;99.70;;;;;;5065002;28;20489;-66
2021/05/23 04:20:14;;;;;;;1.63;1.00;;;10.30;99.70;;;;;;5052799;28;20478;-66
2021/05/23 04:22:41;;;;;;;1.40;0.90;;;10.10;99.70;;;;;;5065471;28;20450;-66
2021/05/23 04:25:11;;;;;;;2.50;1.00;;;10.30;99.70;;;;;;5072695;28;20446;-66
2021/05/23 04:27:38;;;;;;;1.20;0.90;;;10.10;99.70;;;;;;5072605;28;20965;-66
2021/05/23 04:30:05;;;;;;;1.27;0.90;;;10.00;99.70;;;;;;5072801;28;20457;-66
2021/05/23 04:32:32;;;;;;;1.20;0.90;;;9.90;99.70;;;;;;5071639;28;20463;-65
2021/05/23 04:35:00;;;;;;;1.40;1.00;;;9.80;99.70;;;;;;5073844;28;20442;-66
2021/05/23 04:37:26;;;;;;;1.20;0.90;;;9.80;99.70;;;;;;5072317;28;20443;-66
2021/05/23 04:39:52;;;;;;;1.30;0.90;;;10.00;99.70;;;;;;5072399;28;20458;-66
2021/05/23 04:42:19;;;;;;;1.40;1.00;;;10.00;99.70;;;;;;5070893;28;21007;-66
2021/05/23 04:44:45;;;;;;;2.90;1.00;;;10.10;99.70;;;;;;5052383;28;20455;-66
2021/05/23 04:47:11;;;;;;;1.30;0.90;;;10.10;99.70;;;;;;5071725;28;20504;-66
2021/05/23 04:49:39;;;;;;;1.43;1.00;;;10.20;99.70;;;;;;5072592;28;20449;-66
2021/05/23 04:52:07;;;;;;;1.20;0.90;;;10.10;99.70;;;;;;5071757;28;20471;-66
2021/05/23 04:54:34;;;;;;;1.30;1.00;;;10.10;99.70;;;;;;5072012;28;20475;-66
2021/05/23 04:57:00;;;;;;;1.60;1.13;;;10.20;99.70;;;;;;5071390;28;20457;-66
2021/05/23 04:59:26;;;;;;;1.30;1.00;;;10.10;99.70;;;;;;5072593;28;20503;-66
2021/05/23 05:01:52;;;;;;;1.33;1.10;;;10.20;99.70;;;;;;5071415;28;20474;-66
2021/05/23 05:04:19;;;;;;;1.30;0.97;;;10.30;99.70;;;;;;5072001;28;20446;-66
2021/05/23 05:06:45;;;;;;;1.50;1.00;;;10.30;99.70;;;;;;5071970;28;20458;-66
2021/05/23 05:09:12;;;;;;;1.30;0.90;;;10.30;99.70;;;;;;5071905;28;20446;-66
2021/05/23 05:11:38;;;;;;;1.67;1.10;;;10.50;99.70;;;;;;5071380;28;20838;-66
2021/05/23 05:14:05;;;;;;;1.30;1.00;;;10.30;99.70;;;;;;5071658;28;20439;-66
2021/05/23 05:16:31;;;;;;;1.60;0.90;;;10.40;99.70;;;;;;5071577;28;20447;-66
2021/05/23 05:18:58;;;;;;;1.70;1.00;;;10.50;99.70;;;;;;5071707;28;20450;-66
2021/05/23 05:21:24;;;;;;;1.40;1.10;;;10.40;99.70;;;;;;5071386;28;20508;-66
2021/05/23 05:23:51;;;;;;;1.37;1.00;;;10.40;99.70;;;;;;5051551;28;20439;-66
2021/05/23 05:26:18;;;;;;;1.20;1.00;;;10.60;99.70;;;;;;5068453;28;20451;-66
2021/05/23 05:28:44;;;;;;;1.20;0.90;;;10.50;99.70;;;;;;5071606;28;20446;-66
2021/05/23 05:31:10;;;;;;;1.43;1.00;;;10.50;99.70;;;;;;5071568;28;20977;-66
2021/05/23 05:33:37;;;;;;;1.40;1.00;;;10.70;99.70;;;;;;5070942;28;20468;-66
2021/05/23 05:36:03;;;;;;;1.30;0.90;;;10.70;99.70;;;;;;5071480;28;20945;-66
2021/05/23 05:38:29;;;;;;;1.40;1.10;;;10.80;99.70;;;;;;5071491;28;20447;-66
2021/05/23 05:40:56;;;;;;;1.20;1.00;;;10.70;99.70;;;;;;5071380;28;20478;-66
2021/05/23 05:43:24;;;;;;;1.63;1.00;;;10.80;99.70;;;;;;5070802;28;20829;-66
2021/05/23 05:45:50;;;;;;;1.40;1.00;;;10.70;99.70;;;;;;5071243;28;20585;-66
2021/05/23 05:48:16;;;;;;;2.30;1.10;;;10.80;99.70;;;;;;5071503;28;20496;-66
2021/05/23 05:50:43;;;;;;;1.50;1.10;;;10.80;99.70;;;;;;5070812;28;20521;-66
2021/05/23 05:53:09;;;;;;;1.40;1.10;;;10.70;99.70;;;;;;5051955;28;20444;-66
2021/05/23 05:55:35;;;;;;;1.40;1.20;;;10.70;99.70;;;;;;5051384;28;20450;-66
2021/05/23 05:58:01;;;;;;;1.43;1.00;;;10.80;99.70;;;;;;5064515;28;20447;-66
2021/05/23 06:00:29;;;;;;;1.37;1.13;;;10.90;99.70;;;;;;5070901;28;20483;-66
2021/05/23 06:02:55;;;;;;;1.50;1.03;;;10.90;99.70;;;;;;5070514;28;20504;-66
2021/05/23 06:05:21;;;;;;;1.60;1.30;;;11.00;99.70;;;;;;5071094;28;20920;-66
2021/05/23 06:07:48;;;;;;;1.40;1.20;;;11.10;99.70;;;;;;5071004;28;20454;-67
2021/05/23 06:10:15;;;;;;;1.30;1.00;;;11.20;99.70;;;;;;5071126;28;20492;-66
2021/05/23 06:12:41;;;;;;;1.70;1.10;;;11.10;99.70;;;;;;5070730;28;20965;-66
2021/05/23 06:15:09;;;;;;;1.73;1.10;;;10.90;99.70;;;;;;5070854;28;20468;-66
2021/05/23 06:17:36;;;;;;;1.40;1.10;;;10.90;99.70;;;;;;5070668;28;20450;-66
2021/05/23 06:20:03;;;;;;;1.43;1.03;;;11.00;99.70;;;;;;5070725;28;20449;-66
2021/05/23 06:22:29;;;;;;;3.57;1.10;;;11.00;99.70;;;;;;5070868;28;20462;-66
2021/05/23 06:24:55;;;;;;;1.50;1.30;;;11.20;99.70;;;;;;5070219;28;20942;-66
2021/05/23 06:27:21;;;;;;;1.40;1.00;;;11.20;99.70;;;;;;5070475;28;20484;-66
2021/05/23 06:29:48;;;;;;;1.93;1.20;;;11.20;99.70;;;;;;5070885;28;20443;-66
2021/05/23 06:32:15;;;;;;;1.97;1.10;;;11.20;99.70;;;;;;5070719;28;20462;-66
2021/05/23 06:34:42;;;;;;;2.07;1.30;;;11.40;99.70;;;;;;5070330;28;20447;-66
2021/05/23 06:37:08;;;;;;;1.40;1.07;;;11.40;99.70;;;;;;5070408;28;20454;-67
2021/05/23 06:39:34;;;;;;;1.77;1.30;;;11.40;99.70;;;;;;5070574;28;20449;-66
2021/05/23 06:42:00;;;;;;;1.60;1.10;;;11.40;99.70;;;;;;5070280;28;20486;-66
2021/05/23 06:44:27;;;;;;;1.60;1.13;;;11.70;99.70;;;;;;5070097;28;20447;-67
2021/05/23 06:46:53;;;;;;;1.30;1.03;;;11.80;99.70;;;;;;5070363;28;20442;-66
2021/05/23 06:49:19;;;;;;;2.47;1.10;;;11.70;99.70;;;;;;5069925;28;20460;-66
2021/05/23 06:51:46;;;;;;;1.73;1.17;;;11.80;99.70;;;;;;5070003;28;20470;-67
2021/05/23 06:54:12;;;;;;;1.30;1.00;;;11.70;99.70;;;;;;5069607;28;20941;-66
2021/05/23 06:56:38;;;;;;;1.73;1.20;;;11.70;99.70;;;;;;5070101;28;20447;-66
2021/05/23 06:59:06;;;;;;;1.40;1.10;;;11.60;99.70;;;;;;5069984;28;20447;-66
2021/05/23 07:01:32;;;;;;;1.20;0.90;;;11.60;99.70;;;;;;5070276;28;20482;-67
2021/05/23 07:03:58;;;;;;;3.43;1.10;;;12.00;99.70;;;;;;5069244;28;20451;-67
2021/05/23 07:06:25;;;;;;;1.20;1.00;;;12.20;99.70;;;;;;5069737;28;20487;-67
2021/05/23 07:08:52;;;;;;;1.33;0.93;;;12.40;99.70;;;;;;5069593;28;20446;-66
2021/05/23 07:11:19;;;;;;;1.50;1.00;;;12.60;99.70;;;;;;5070333;28;20482;-66
2021/05/23 07:13:45;;;;;;;1.50;1.10;;;12.80;99.70;;;;;;5069378;28;20516;-66
2021/05/23 07:16:12;;;;;;;1.27;0.97;;;12.70;99.70;;;;;;5070203;28;21312;-66
2021/05/23 07:18:38;;;;;;;1.70;1.20;;;12.90;99.70;;;;;;5069863;28;20472;-66
2021/05/23 07:21:05;;;;;;;1.30;1.00;;;12.60;99.70;;;;;;5068480;28;20491;-66
2021/05/23 07:23:31;;;;;;;1.27;1.00;;;12.90;99.70;;;;;;5063504;28;20807;-66
2021/05/23 07:25:58;;;;;;;2.27;1.30;;;13.20;99.70;;;;;;5074721;28;20915;-66
2021/05/23 07:28:25;;;;;;;1.73;1.30;;;13.30;99.70;;;;;;5069887;28;20477;-66
2021/05/23 07:30:52;;;;;;;1.30;1.00;;;13.40;99.70;;;;;;5049703;28;20464;-67
2021/05/23 07:33:18;;;;;;;1.30;1.00;;;13.20;99.70;;;;;;5048414;28;20444;-66
2021/05/23 07:35:45;;;;;;;1.50;1.20;;;13.10;99.70;;;;;;5049952;28;20473;-66
2021/05/23 07:38:11;;;;;;;1.30;1.10;;;13.20;99.70;;;;;;5049821;28;20518;-66
2021/05/23 07:40:38;;;;;;;1.23;1.00;;;13.00;99.70;;;;;;5049748;28;20483;-66
2021/05/23 07:43:05;;;;;;;1.30;1.00;;;13.30;99.70;;;;;;5049666;28;20440;-67
2021/05/23 07:45:32;;;;;;;1.30;1.00;;;13.50;99.70;;;;;;5065677;28;20451;-66
2021/05/23 07:47:58;;;;;;;1.30;1.00;;;13.80;99.70;;;;;;5069886;28;20443;-67
2021/05/23 07:50:25;;;;;;;1.30;1.00;;;13.80;99.70;;;;;;5069309;28;20431;-66
2021/05/23 07:52:51;;;;;;;1.60;1.00;;;13.90;99.70;;;;;;5069539;28;20450;-67
2021/05/23 07:55:18;;;;;;;1.30;0.93;;;13.60;99.70;;;;;;5062692;28;20878;-66
2021/05/23 07:57:45;;;;;;;1.40;1.10;;;13.20;99.70;;;;;;5059575;28;20469;-66
2021/05/23 08:00:14;;;;;;;1.20;0.90;;;12.40;99.70;;;;;;5061975;28;20494;-67
2021/05/23 08:02:40;;;;;;;1.20;1.00;;;11.90;99.70;;;;;;5056843;28;20466;-66
2021/05/23 08:05:07;;;;;;;3.00;1.10;;;11.50;99.70;;;;;;5059385;28;20447;-66
2021/05/23 08:07:34;;;;;;;1.20;0.93;;;11.10;99.70;;;;;;5059332;28;20443;-66
2021/05/23 08:10:00;;;;;;;1.83;1.00;;;10.80;99.70;;;;;;5061495;28;20799;-66
2021/05/23 08:12:26;;;;;;;1.57;1.20;;;10.90;99.70;;;;;;5062415;28;21009;-66
2021/05/23 08:14:52;;;;;;;5.20;1.33;;;10.90;99.70;;;;;;5057779;28;20442;-66
2021/05/23 08:17:20;;;;;;;1.70;1.20;;;10.80;99.70;;;;;;5060125;28;20463;-66
2021/05/23 08:19:46;;;;;;;2.00;1.10;;;10.80;99.70;;;;;;5063501;28;20455;-66
2021/05/23 08:22:12;;;;;;;1.50;1.20;;;10.90;99.70;;;;;;5059792;28;20486;-66
2021/05/23 08:24:39;;;;;;;1.87;1.20;;;11.10;99.70;;;;;;5071959;28;20453;-66
2021/05/23 08:27:05;;;;;;;1.70;1.00;;;11.10;99.70;;;;;;5069000;28;20450;-66
2021/05/23 08:29:31;;;;;;;2.17;1.30;;;11.10;99.70;;;;;;5071881;28;20451;-66
2021/05/23 08:31:58;;;;;;;2.80;1.43;;;11.20;99.70;;;;;;5070487;28;20516;-66
2021/05/23 08:34:25;;;;;;;1.40;1.00;;;11.60;99.70;;;;;;5059297;28;20539;-66
2021/05/23 08:36:51;;;;;;;1.53;1.10;;;11.80;99.70;;;;;;5060364;28;20888;-67
2021/05/23 08:39:18;;;;;;;1.63;1.13;;;12.10;99.70;;;;;;5055276;28;20955;-67
2021/05/23 08:41:46;;;;;;;1.50;1.10;;;12.30;99.70;;;;;;5057710;28;20563;-66
2021/05/23 08:44:17;;;;;;;1.60;1.10;;;12.30;99.70;;;;;;5061533;28;20478;-66
2021/05/23 08:46:46;;;;;;;1.67;1.10;;;12.10;99.70;;;;;;5061898;28;20450;-67
2021/05/23 08:49:12;;;;;;;1.70;1.30;;;12.20;99.70;;;;;;5062236;28;20447;-67
2021/05/23 08:51:39;;;;;;;1.30;1.10;;;12.50;99.70;;;;;;5059710;28;20512;-67
2021/05/23 08:54:05;;;;;;;1.70;1.13;;;12.90;99.70;;;;;;5060552;28;20436;-67
2021/05/23 08:56:31;;;;;;;1.40;1.00;;;13.30;99.70;;;;;;5061461;28;20457;-67
2021/05/23 08:58:58;;;;;;;1.30;1.07;;;13.50;99.70;;;;;;5072103;28;20451;-66
2021/05/23 09:01:28;;;;;;;1.37;1.07;;;13.40;99.70;;;;;;5068197;28;20840;-66
2021/05/23 09:03:58;;;;;;;1.63;1.20;;;13.50;99.70;;;;;;5059245;28;20438;-67
2021/05/23 09:06:29;;;;;;;1.40;0.97;;;13.10;99.70;;;;;;5060861;28;20454;-66
2021/05/23 09:09:00;;;;;;;1.70;1.13;;;12.90;99.70;;;;;;5060177;28;20497;-66
2021/05/23 09:11:26;;;;;;;1.80;1.10;;;13.10;99.70;;;;;;5060772;28;20455;-67
2021/05/23 09:13:54;;;;;;;1.73;1.10;;;13.30;99.70;;;;;;5059468;28;20458;-67
2021/05/23 09:16:21;;;;;;;1.60;1.07;;;13.30;99.70;;;;;;5062328;28;20446;-66
2021/05/23 09:18:48;;;;;;;1.30;1.10;;;13.10;99.70;;;;;;5059022;28;20445;-67
2021/05/23 09:21:16;;;;;;;2.23;1.20;;;13.10;99.70;;;;;;5058298;28;20895;-67
2021/05/23 09:23:46;;;;;;;1.87;1.20;;;13.40;99.70;;;;;;5059777;28;20443;-66
2021/05/23 09:26:18;;;;;;;1.50;1.20;;;13.50;99.70;;;;;;5059253;28;20535;-66
2021/05/23 09:28:45;;;;;;;1.70;1.20;;;13.70;99.70;;;;;;5059048;28;20432;-66
2021/05/23 09:31:13;;;;;;;2.37;1.20;;;14.00;99.70;;;;;;5061064;28;20858;-67
2021/05/23 09:33:45;;;;;;;3.00;1.30;;;14.00;99.70;;;;;;5059790;28;20439;-67
2021/05/23 09:36:11;;;;;;;1.90;1.30;;;14.10;99.70;;;;;;5059219;28;20713;-66
2021/05/23 09:38:41;;;;;;;1.80;1.23;;;14.10;99.70;;;;;;5059430;28;20443;-67
2021/05/23 09:41:18;;;;;;;1.83;1.10;;;13.90;99.70;;;;;;5061799;28;20513;-67
2021/05/23 09:43:45;;;;;;;1.60;1.20;;;13.70;99.70;;;;;;5058294;28;20818;-66
2021/05/23 09:46:11;;;;;;;1.50;1.20;;;13.40;99.70;;;;;;5060634;28;20435;-66
2021/05/23 09:48:37;;;;;;;1.27;1.10;;;13.60;99.70;;;;;;5060725;28;20448;-66
2021/05/23 09:51:14;;;;;;;1.80;1.20;;;13.60;99.70;;;;;;5058854;28;20475;-66
2021/05/23 09:53:42;;;;;;;1.43;1.20;;;13.60;99.70;;;;;;5059063;28;20482;-66
2021/05/23 09:56:10;;;;;;;1.53;1.10;;;13.60;99.70;;;;;;5058888;28;20448;-66
2021/05/23 09:58:41;;;;;;;2.17;0.90;;;13.00;99.70;;;;;;5061481;28;20443;-67
2021/05/23 10:01:09;;;;;;;1.40;1.07;;;12.70;99.70;;;;;;5060489;28;20483;-66
2021/05/23 10:03:38;;;;;;;1.37;1.10;;;12.60;99.70;;;;;;5059778;28;20439;-67
2021/05/23 10:06:06;;;;;;;1.37;1.13;;;12.50;99.70;;;;;;5057643;28;20467;-66
2021/05/23 10:08:33;;;;;;;1.20;1.00;;;12.70;99.70;;;;;;5060251;28;20447;-66
2021/05/23 10:10:59;;;;;;;1.60;1.10;;;12.90;99.70;;;;;;5059362;28;20551;-66
2021/05/23 10:13:26;;;;;;;1.20;0.90;;;13.20;99.70;;;;;;5057115;28;20448;-66
2021/05/23 10:15:53;;;;;;;1.47;0.90;;;13.90;99.70;;;;;;5059600;28;20814;-67
2021/05/23 10:18:21;;;;;;;1.60;1.13;;;14.10;99.70;;;;;;5059219;28;20489;-66
2021/05/23 10:20:53;;;;;;;1.20;0.90;;;14.50;99.70;;;;;;5059195;28;20507;-67
2021/05/23 10:23:27;;;;;;;1.30;1.00;;;14.50;99.70;;;;;;5059050;28;20435;-67
2021/05/23 10:25:58;;;;;;;1.97;1.10;;;14.80;99.70;;;;;;5058234;28;20444;-67
2021/05/23 10:28:25;;;;;;;1.30;1.00;;;14.80;99.70;;;;;;5061588;28;20474;-67
2021/05/23 10:30:54;;;;;;;1.20;1.00;;;14.40;99.70;;;;;;5065773;28;21030;-66
2021/05/23 10:33:22;;;;;;;1.50;1.00;;;14.60;99.70;;;;;;5069228;28;20443;-68
2021/05/23 10:35:50;;;;;;;1.20;1.10;;;14.80;99.70;;;;;;5070138;28;20534;-66
2021/05/23 10:38:21;;;;;;;5.10;1.23;;;15.00;99.70;;;;;;5069355;28;20453;-66
2021/05/23 10:40:52;;;;;;;1.70;1.20;;;14.90;99.70;;;;;;5069615;28;20833;-67
2021/05/23 10:43:27;;;;;;;1.70;1.20;;;14.70;99.00;;;;;;5068906;28;20451;-66
2021/05/23 10:46:09;;;;;;;1.40;1.10;;;14.80;99.70;;;;;;5065761;28;20430;-66
2021/05/23 10:48:36;;;;;;;1.40;1.07;;;14.50;99.70;;;;;;5050126;28;20443;-67
2021/05/23 10:51:13;;;;;;;1.30;1.00;;;14.50;99.70;;;;;;5051280;28;20479;-66
2021/05/23 10:53:39;;;;;;;1.30;1.00;;;14.70;99.70;;;;;;5062992;28;20446;-66
2021/05/23 10:56:06;;;;;;;1.87;1.20;;;14.80;99.70;;;;;;5059115;28;20969;-67
2021/05/23 10:58:32;;;;;;;1.43;1.20;;;15.00;99.70;;;;;;5066286;28;20521;-66
2021/05/23 11:01:00;;;;;;;2.03;1.10;;;14.90;99.70;;;;;;5062355;28;20484;-66
2021/05/23 11:03:27;;;;;;;2.30;1.23;;;14.80;99.70;;;;;;5052508;28;20440;-67
2021/05/23 11:06:02;;;;;;;1.53;1.10;;;15.00;99.70;;;;;;5056494;28;20450;-66
2021/05/23 11:08:30;;;;;;;1.20;0.90;;;15.00;99.70;;;;;;5060219;28;20952;-67
2021/05/23 11:10:57;;;;;;;2.00;1.30;;;15.10;99.70;;;;;;5058264;28;20459;-67
2021/05/23 11:13:32;;;;;;;2.03;1.30;;;15.00;99.70;;;;;;5058995;28;20454;-67
2021/05/23 11:16:10;;;;;;;1.43;1.00;;;14.70;99.70;;;;;;5059124;28;20735;-67
2021/05/23 11:18:38;;;;;;;1.80;1.30;;;14.70;99.70;;;;;;5061136;28;20998;-68
2021/05/23 11:21:06;;;;;;;2.57;1.90;;;14.60;99.70;;;;;;5059226;28;20484;-66
2021/05/23 11:23:34;;;;;;;3.67;1.40;;;14.50;99.70;;;;;;5058460;28;20439;-67
2021/05/23 11:26:04;;;;;;;1.37;1.00;;;14.50;99.70;;;;;;5057884;28;20446;-66
2021/05/23 11:28:31;;;;;;;1.43;1.10;;;14.00;99.70;;;;;;5059243;28;21101;-66
2021/05/23 11:30:57;;;;;;;2.17;1.20;;;14.00;99.70;;;;;;5057422;28;20459;-66
2021/05/23 11:33:23;;;;;;;2.00;1.33;;;14.10;99.70;;;;;;5059099;28;20602;-67
2021/05/23 11:35:53;;;;;;;2.40;1.50;;;14.40;99.70;;;;;;5056882;28;20442;-66
2021/05/23 11:38:19;;;;;;;2.47;1.60;;;14.90;99.70;;;;;;5057189;28;20456;-67
2021/05/23 11:40:45;;;;;;;1.80;1.30;;;15.00;99.70;;;;;;5056898;28;20487;-67
2021/05/23 11:43:17;;;;;;;1.40;1.10;;;15.20;99.70;;;;;;5059948;28;20994;-66
2021/05/23 11:45:54;;;;;;;3.00;1.40;;;15.50;99.70;;;;;;5062174;28;20504;-66
2021/05/23 11:48:31;;;;;;;1.40;1.00;;;15.60;99.70;;;;;;5060214;28;20458;-66
2021/05/23 11:50:58;;;;;;;2.93;1.30;;;15.40;99.40;;;;;;5058202;28;20546;-66
2021/05/23 11:53:39;;;;;;;1.40;1.10;;;15.60;99.70;;;;;;5061369;28;20533;-66
2021/05/23 11:56:05;;;;;;;1.50;1.10;;;15.60;99.70;;;;;;5065254;28;20446;-66
2021/05/23 11:58:31;;;;;;;1.87;1.30;;;15.00;96.10;;;;;;5063971;28;20447;-66
2021/05/23 12:01:09;;;;;;;1.40;1.00;;;15.10;99.00;;;;;;5061912;28;20570;-66
2021/05/23 12:03:35;;;;;;;1.37;1.10;;;15.00;95.80;;;;;;5070882;28;20446;-66
2021/05/23 12:06:03;;;;;;;1.60;1.20;;;15.10;98.60;;;;;;5064480;28;20472;-67
2021/05/23 12:08:29;;;;;;;1.30;1.10;;;15.30;96.30;;;;;;5062503;28;20451;-66
2021/05/23 12:11:03;;;;;;;1.70;1.10;;;15.60;98.80;;;;;;5052702;28;20455;-67
2021/05/23 12:13:37;;;;;;;2.67;1.10;;;15.70;97.80;;;;;;5052874;28;20876;-67
2021/05/23 12:16:04;;;;;;;3.17;1.20;;;15.70;97.40;;;;;;5053167;28;20447;-67
2021/05/23 12:18:38;;;;;;;1.37;1.00;;;15.40;95.20;;;;;;5066168;28;20570;-67
2021/05/23 12:21:07;;;;;;;1.57;1.10;;;15.50;98.50;;;;;;5072509;28;20474;-67
2021/05/23 12:23:34;;;;;;;1.93;1.27;;;15.50;97.50;;;;;;5072121;28;20954;-67
2021/05/23 12:26:00;;;;;;;1.80;1.10;;;15.60;99.70;;;;;;5058404;28;20451;-67
2021/05/23 12:28:37;;;;;;;1.57;1.20;;;15.70;99.00;;;;;;5052857;28;20448;-67
2021/05/23 12:31:05;;;;;;;1.30;1.00;;;15.80;96.50;;;;;;5052838;28;20470;-67
2021/05/23 12:33:31;;;;;;;1.40;1.10;;;15.80;95.50;;;;;;5055672;28;20550;-66
2021/05/23 12:36:09;;;;;;;1.60;1.20;;;15.30;93.60;;;;;;5072076;28;20446;-67
2021/05/23 12:38:37;;;;;;;2.23;1.50;;;15.30;92.90;;;;;;5072327;28;20446;-67
2021/05/23 12:41:04;;;;;;;1.60;1.03;;;15.70;96.80;;;;;;5072102;28;20536;-67
2021/05/23 12:43:32;;;;;;;1.50;1.10;;;15.70;93.50;;;;;;5071950;28;20450;-67
2021/05/23 12:46:01;;;;;;;1.50;1.00;;;15.90;92.00;;;;;;5072400;28;20496;-67
2021/05/23 12:48:31;;;;;;;1.30;1.00;;;15.80;94.00;;;;;;5071934;28;20447;-67
2021/05/23 12:50:59;;;;;;;1.23;0.97;;;15.70;95.00;;;;;;5063892;28;20628;-67